Airfield :
LOGIN :

Register | Disclaimer

   EN    FR    IT 

 










Legend :    VFR   Marginal VFR   IFR   Intensive IFR   Very Intensive IFR
Visi :
Ceiling :
>= 8 km
>= 3000ft
5 to 8 km
1000 to 3000 ft
1500m to 5 km
500 to 1000 ft
800 to 1500m
200 to 500 ft
< 800m
< 200 ft
Symbols :   Thunderstorms  Fog  Heavy snow  Heavy precipitations  Wind > 20 kt
SIGMETs :     Misc.  Thunderstorms  Icing  Turbulence  Mountain Waves  Volcanic Ashes






- Airport Elevation : 39 ft


ETNH - Hohn AB

CURRENT METAR :
  • 171920Z 28002KT 9999 SCT050 SCT075 11/10 Q1004 BLU+BLU+ TEMPO GRN

EXPIRED METARs :
  • 171820Z 04002KT 9999 FEW040 SCT060 BKN210 11/10 Q1003 RETS BLU+BLU TEMPO YLO
  • 171733Z 04005KT 8000 VCTS FEW040CB SCT060 BKN220 11/10 Q1003 BLU+BLU TEMPO YLO
  • 171720Z 34002KT 5000 -TSRA BR FEW032 SCT040CB BKN220 11/10 Q1003 RESHRA WHT BLU TEMPO YLO
  • 171711Z 01002KT 4000 -TSRA BR FEW028 SCT040CB BKN220 11/10 Q1003 RESHRA GRN BLU TEMPO YLO
  • 171703Z 36001KT 4000 -SHRA BR FEW028 SCT040CB BKN220 12/10 Q1003 RESHRA GRN BLU TEMPO YLO
  • 171653Z 30004KT 3000 -SHRA BR FEW028 BKN040CB 12/10 Q1003 RESHRA YLO BLU TEMPO YLO
  • 171645Z 30006KT 3000 +SHRA BR FEW028 BKN040CB 12/10 Q1003 YLO BLU TEMPO YLO
  • 171640Z 33007KT 4000 SHRA BR FEW028 SCT030CB BKN060 12/10 Q1003 GRN BLU TEMPO YLO

TAF TAF ETNH
Valid from the 17 at 17:00 until the 18 at 05:00 UTC


171615Z 1717/1805 30005KT 9999 NSW BKN030
TEMPO 1717/1719 29015G25KT 3000 TSRA BKN010 BKN020CB
TEMPO 1719/1722 29012KT 4000 SHRA BKN010 BKN020CB
TEMPO 1722/1805 34004KT 4000 BR BKN010 BY ETGL



MET'MAP, your aeronautical weather chart ! - Copyright ORBIFLY December 2007 - Disclaimer

ORBIFLY MET'MAP TEAM :

Programming & Development : Alexandra Zaïnal
Concept & original design : Baudouin d'Aumeries
Assistance for programming : Marc-Olivier Méhu
Technical & hardware support : Manuel Goepfert

Contact : metmap@orbifly.com




SOURCES & CREDITS :

   NOAA